sensor_id;sensor_type;location;lat;lon;timestamp;P1;durP1;ratioP1;P2;durP2;ratioP2
21876;SDS011;11103;43.788;23.710;2022-07-30T00:02:13;6.50;;;4.90;;
21876;SDS011;11103;43.788;23.710;2022-07-30T00:04:40;9.03;;;5.43;;
21876;SDS011;11103;43.788;23.710;2022-07-30T00:07:06;6.77;;;5.43;;
21876;SDS011;11103;43.788;23.710;2022-07-30T00:09:31;9.70;;;6.20;;
21876;SDS011;11103;43.788;23.710;2022-07-30T00:11:57;7.70;;;5.00;;
21876;SDS011;11103;43.788;23.710;2022-07-30T00:14:22;9.07;;;6.00;;
21876;SDS011;11103;43.788;23.710;2022-07-30T00:16:48;6.37;;;5.60;;
21876;SDS011;11103;43.788;23.710;2022-07-30T00:19:13;10.33;;;5.83;;
21876;SDS011;11103;43.788;23.710;2022-07-30T00:21:38;8.80;;;5.80;;
21876;SDS011;11103;43.788;23.710;2022-07-30T00:24:04;6.00;;;5.40;;
21876;SDS011;11103;43.788;23.710;2022-07-30T00:26:30;12.90;;;5.63;;
21876;SDS011;11103;43.788;23.710;2022-07-30T00:28:56;6.27;;;5.30;;
21876;SDS011;11103;43.788;23.710;2022-07-30T00:31:21;12.03;;;6.10;;
21876;SDS011;11103;43.788;23.710;2022-07-30T00:33:47;7.83;;;5.93;;
21876;SDS011;11103;43.788;23.710;2022-07-30T00:36:12;10.80;;;6.03;;
21876;SDS011;11103;43.788;23.710;2022-07-30T00:38:38;10.20;;;6.10;;
21876;SDS011;11103;43.788;23.710;2022-07-30T00:41:03;9.20;;;5.93;;
21876;SDS011;11103;43.788;23.710;2022-07-30T00:43:28;7.43;;;5.77;;
21876;SDS011;11103;43.788;23.710;2022-07-30T00:45:54;8.77;;;6.30;;
21876;SDS011;11103;43.788;23.710;2022-07-30T00:48:19;21.73;;;6.20;;
21876;SDS011;11103;43.788;23.710;2022-07-30T00:50:45;11.17;;;7.30;;
21876;SDS011;11103;43.788;23.710;2022-07-30T00:53:10;13.30;;;6.37;;
21876;SDS011;11103;43.788;23.710;2022-07-30T00:55:36;12.57;;;7.00;;
21876;SDS011;11103;43.788;23.710;2022-07-30T00:58:01;9.23;;;6.60;;
21876;SDS011;11103;43.788;23.710;2022-07-30T01:00:27;10.47;;;6.57;;
21876;SDS011;11103;43.788;23.710;2022-07-30T01:02:53;11.37;;;6.63;;
21876;SDS011;11103;43.788;23.710;2022-07-30T01:05:18;9.23;;;6.53;;
21876;SDS011;11103;43.788;23.710;2022-07-30T01:07:44;8.53;;;6.40;;
21876;SDS011;11103;43.788;23.710;2022-07-30T01:10:11;8.37;;;6.77;;
21876;SDS011;11103;43.788;23.710;2022-07-30T01:12:39;9.10;;;6.70;;
21876;SDS011;11103;43.788;23.710;2022-07-30T01:15:07;15.23;;;6.90;;
21876;SDS011;11103;43.788;23.710;2022-07-30T01:17:34;8.27;;;6.90;;
21876;SDS011;11103;43.788;23.710;2022-07-30T01:20:02;10.77;;;7.10;;
21876;SDS011;11103;43.788;23.710;2022-07-30T01:23:16;9.40;;;7.13;;
21876;SDS011;11103;43.788;23.710;2022-07-30T01:25:52;10.87;;;6.63;;
21876;SDS011;11103;43.788;23.710;2022-07-30T01:28:22;8.53;;;6.73;;
21876;SDS011;11103;43.788;23.710;2022-07-30T01:30:51;15.57;;;7.40;;
21876;SDS011;11103;43.788;23.710;2022-07-30T01:33:18;8.23;;;6.70;;
21876;SDS011;11103;43.788;23.710;2022-07-30T01:35:47;17.63;;;6.80;;
21876;SDS011;11103;43.788;23.710;2022-07-30T01:38:15;8.30;;;6.60;;
21876;SDS011;11103;43.788;23.710;2022-07-30T01:40:43;10.77;;;7.07;;
21876;SDS011;11103;43.788;23.710;2022-07-30T01:43:09;11.50;;;7.27;;
21876;SDS011;11103;43.788;23.710;2022-07-30T01:45:37;9.67;;;7.10;;
21876;SDS011;11103;43.788;23.710;2022-07-30T01:48:03;7.40;;;6.70;;
21876;SDS011;11103;43.788;23.710;2022-07-30T01:50:31;11.80;;;7.43;;
21876;SDS011;11103;43.788;23.710;2022-07-30T01:53:00;11.43;;;7.50;;
21876;SDS011;11103;43.788;23.710;2022-07-30T01:55:30;14.80;;;7.30;;
21876;SDS011;11103;43.788;23.710;2022-07-30T01:57:59;9.50;;;7.77;;
21876;SDS011;11103;43.788;23.710;2022-07-30T02:00:27;10.67;;;7.43;;
21876;SDS011;11103;43.788;23.710;2022-07-30T02:02:55;13.03;;;7.53;;
21876;SDS011;11103;43.788;23.710;2022-07-30T02:05:21;10.00;;;7.70;;
21876;SDS011;11103;43.788;23.710;2022-07-30T02:13:10;10.43;;;7.50;;
21876;SDS011;11103;43.788;23.710;2022-07-30T02:15:40;12.20;;;7.80;;
21876;SDS011;11103;43.788;23.710;2022-07-30T02:21:21;17.20;;;7.43;;
21876;SDS011;11103;43.788;23.710;2022-07-30T02:23:48;12.97;;;7.80;;
21876;SDS011;11103;43.788;23.710;2022-07-30T02:26:20;10.90;;;7.63;;
21876;SDS011;11103;43.788;23.710;2022-07-30T02:28:50;12.67;;;7.87;;
21876;SDS011;11103;43.788;23.710;2022-07-30T02:31:19;8.83;;;7.30;;
21876;SDS011;11103;43.788;23.710;2022-07-30T02:33:47;11.87;;;7.90;;
21876;SDS011;11103;43.788;23.710;2022-07-30T02:36:14;10.73;;;7.20;;
21876;SDS011;11103;43.788;23.710;2022-07-30T02:38:42;12.53;;;7.57;;
21876;SDS011;11103;43.788;23.710;2022-07-30T02:41:09;9.43;;;7.00;;
21876;SDS011;11103;43.788;23.710;2022-07-30T02:43:36;10.97;;;7.63;;
21876;SDS011;11103;43.788;23.710;2022-07-30T02:46:06;15.70;;;7.70;;
21876;SDS011;11103;43.788;23.710;2022-07-30T02:48:33;11.07;;;7.23;;
21876;SDS011;11103;43.788;23.710;2022-07-30T02:51:02;10.57;;;7.37;;
21876;SDS011;11103;43.788;23.710;2022-07-30T02:53:29;13.40;;;7.53;;
21876;SDS011;11103;43.788;23.710;2022-07-30T02:55:55;11.40;;;7.63;;
21876;SDS011;11103;43.788;23.710;2022-07-30T02:58:22;19.83;;;7.83;;
21876;SDS011;11103;43.788;23.710;2022-07-30T03:00:50;9.93;;;7.50;;
21876;SDS011;11103;43.788;23.710;2022-07-30T03:03:17;14.03;;;8.50;;
21876;SDS011;11103;43.788;23.710;2022-07-30T03:05:44;8.50;;;7.20;;
21876;SDS011;11103;43.788;23.710;2022-07-30T03:08:14;11.70;;;7.57;;
21876;SDS011;11103;43.788;23.710;2022-07-30T03:10:40;10.40;;;7.03;;
21876;SDS011;11103;43.788;23.710;2022-07-30T03:13:08;10.00;;;7.47;;
21876;SDS011;11103;43.788;23.710;2022-07-30T03:15:36;11.60;;;8.20;;
21876;SDS011;11103;43.788;23.710;2022-07-30T03:18:09;9.37;;;7.33;;
21876;SDS011;11103;43.788;23.710;2022-07-30T03:20:37;10.23;;;7.77;;
21876;SDS011;11103;43.788;23.710;2022-07-30T03:23:03;10.60;;;7.73;;
21876;SDS011;11103;43.788;23.710;2022-07-30T03:25:31;11.90;;;7.73;;
21876;SDS011;11103;43.788;23.710;2022-07-30T03:27:58;12.03;;;8.03;;
21876;SDS011;11103;43.788;23.710;2022-07-30T03:30:27;14.70;;;7.70;;
21876;SDS011;11103;43.788;23.710;2022-07-30T03:32:53;11.87;;;7.60;;
21876;SDS011;11103;43.788;23.710;2022-07-30T03:35:20;12.43;;;8.33;;
21876;SDS011;11103;43.788;23.710;2022-07-30T03:37:47;9.33;;;6.87;;
21876;SDS011;11103;43.788;23.710;2022-07-30T03:40:13;10.07;;;7.03;;
21876;SDS011;11103;43.788;23.710;2022-07-30T03:42:41;8.97;;;6.93;;
21876;SDS011;11103;43.788;23.710;2022-07-30T03:45:09;13.23;;;7.40;;
21876;SDS011;11103;43.788;23.710;2022-07-30T03:47:39;12.57;;;6.87;;
21876;SDS011;11103;43.788;23.710;2022-07-30T03:50:06;12.97;;;6.80;;
21876;SDS011;11103;43.788;23.710;2022-07-30T03:52:33;12.03;;;7.10;;
21876;SDS011;11103;43.788;23.710;2022-07-30T03:55:01;10.50;;;6.57;;
21876;SDS011;11103;43.788;23.710;2022-07-30T03:57:27;9.10;;;6.67;;
21876;SDS011;11103;43.788;23.710;2022-07-30T03:59:53;10.03;;;6.07;;
21876;SDS011;11103;43.788;23.710;2022-07-30T04:02:18;20.23;;;6.50;;
21876;SDS011;11103;43.788;23.710;2022-07-30T04:04:44;7.93;;;5.90;;
21876;SDS011;11103;43.788;23.710;2022-07-30T04:07:09;9.47;;;6.20;;
21876;SDS011;11103;43.788;23.710;2022-07-30T04:09:35;9.93;;;5.90;;
21876;SDS011;11103;43.788;23.710;2022-07-30T04:12:00;11.80;;;6.20;;
21876;SDS011;11103;43.788;23.710;2022-07-30T04:14:26;9.67;;;5.83;;
21876;SDS011;11103;43.788;23.710;2022-07-30T04:16:54;8.50;;;6.17;;
21876;SDS011;11103;43.788;23.710;2022-07-30T04:19:30;7.70;;;5.37;;
21876;SDS011;11103;43.788;23.710;2022-07-30T04:21:59;8.03;;;6.17;;
21876;SDS011;11103;43.788;23.710;2022-07-30T04:24:27;9.37;;;5.60;;
21876;SDS011;11103;43.788;23.710;2022-07-30T04:26:55;9.93;;;5.50;;
21876;SDS011;11103;43.788;23.710;2022-07-30T04:29:23;11.77;;;5.57;;
21876;SDS011;11103;43.788;23.710;2022-07-30T04:31:48;9.00;;;5.50;;
21876;SDS011;11103;43.788;23.710;2022-07-30T04:34:15;8.73;;;6.23;;
21876;SDS011;11103;43.788;23.710;2022-07-30T04:36:40;9.03;;;5.53;;
21876;SDS011;11103;43.788;23.710;2022-07-30T04:39:07;9.53;;;5.33;;
21876;SDS011;11103;43.788;23.710;2022-07-30T04:41:34;9.73;;;5.50;;
21876;SDS011;11103;43.788;23.710;2022-07-30T04:43:59;10.33;;;5.80;;
21876;SDS011;11103;43.788;23.710;2022-07-30T04:46:25;9.10;;;5.97;;
21876;SDS011;11103;43.788;23.710;2022-07-30T04:48:50;8.20;;;5.57;;
21876;SDS011;11103;43.788;23.710;2022-07-30T04:51:21;9.90;;;5.53;;
21876;SDS011;11103;43.788;23.710;2022-07-30T04:53:56;10.37;;;6.20;;
21876;SDS011;11103;43.788;23.710;2022-07-30T04:56:23;9.40;;;5.77;;
21876;SDS011;11103;43.788;23.710;2022-07-30T04:58:50;6.07;;;5.20;;
21876;SDS011;11103;43.788;23.710;2022-07-30T05:01:26;6.67;;;5.37;;
21876;SDS011;11103;43.788;23.710;2022-07-30T05:03:57;6.30;;;5.50;;
21876;SDS011;11103;43.788;23.710;2022-07-30T05:06:25;6.73;;;5.30;;
21876;SDS011;11103;43.788;23.710;2022-07-30T05:08:52;8.03;;;5.80;;
21876;SDS011;11103;43.788;23.710;2022-07-30T05:11:19;10.67;;;7.43;;
21876;SDS011;11103;43.788;23.710;2022-07-30T05:13:45;6.83;;;5.20;;
21876;SDS011;11103;43.788;23.710;2022-07-30T05:16:15;7.63;;;5.67;;
21876;SDS011;11103;43.788;23.710;2022-07-30T05:18:41;10.73;;;6.00;;
21876;SDS011;11103;43.788;23.710;2022-07-30T05:21:07;6.80;;;5.93;;
21876;SDS011;11103;43.788;23.710;2022-07-30T05:23:33;11.17;;;5.70;;
21876;SDS011;11103;43.788;23.710;2022-07-30T05:25:59;9.90;;;5.63;;
21876;SDS011;11103;43.788;23.710;2022-07-30T05:28:25;8.40;;;5.07;;
21876;SDS011;11103;43.788;23.710;2022-07-30T05:30:53;10.80;;;5.90;;
21876;SDS011;11103;43.788;23.710;2022-07-30T05:33:20;7.30;;;5.37;;
21876;SDS011;11103;43.788;23.710;2022-07-30T05:35:47;8.80;;;4.83;;
21876;SDS011;11103;43.788;23.710;2022-07-30T05:38:13;7.30;;;5.50;;
21876;SDS011;11103;43.788;23.710;2022-07-30T05:40:38;7.10;;;4.90;;
21876;SDS011;11103;43.788;23.710;2022-07-30T05:43:04;7.77;;;5.37;;
21876;SDS011;11103;43.788;23.710;2022-07-30T05:45:31;12.20;;;5.10;;
21876;SDS011;11103;43.788;23.710;2022-07-30T05:48:03;9.67;;;5.07;;
21876;SDS011;11103;43.788;23.710;2022-07-30T05:50:29;6.97;;;5.07;;
21876;SDS011;11103;43.788;23.710;2022-07-30T05:53:00;8.03;;;4.93;;
21876;SDS011;11103;43.788;23.710;2022-07-30T05:55:26;8.63;;;5.07;;
21876;SDS011;11103;43.788;23.710;2022-07-30T05:57:51;7.87;;;5.50;;
21876;SDS011;11103;43.788;23.710;2022-07-30T06:00:17;8.60;;;5.33;;
21876;SDS011;11103;43.788;23.710;2022-07-30T06:02:42;15.03;;;5.77;;
21876;SDS011;11103;43.788;23.710;2022-07-30T06:05:08;8.33;;;5.40;;
21876;SDS011;11103;43.788;23.710;2022-07-30T06:07:33;9.17;;;5.77;;
21876;SDS011;11103;43.788;23.710;2022-07-30T06:09:59;31.27;;;6.53;;
21876;SDS011;11103;43.788;23.710;2022-07-30T06:12:28;8.40;;;5.27;;
21876;SDS011;11103;43.788;23.710;2022-07-30T06:14:55;13.03;;;6.07;;
21876;SDS011;11103;43.788;23.710;2022-07-30T06:17:21;7.03;;;5.30;;
21876;SDS011;11103;43.788;23.710;2022-07-30T06:19:46;9.77;;;5.43;;
21876;SDS011;11103;43.788;23.710;2022-07-30T06:22:12;5.90;;;5.13;;
21876;SDS011;11103;43.788;23.710;2022-07-30T06:24:38;8.50;;;5.57;;
21876;SDS011;11103;43.788;23.710;2022-07-30T06:27:03;6.83;;;5.03;;
21876;SDS011;11103;43.788;23.710;2022-07-30T06:29:29;13.13;;;5.60;;
21876;SDS011;11103;43.788;23.710;2022-07-30T06:31:55;8.37;;;5.77;;
21876;SDS011;11103;43.788;23.710;2022-07-30T06:34:20;9.43;;;5.10;;
21876;SDS011;11103;43.788;23.710;2022-07-30T06:36:46;11.73;;;5.43;;
21876;SDS011;11103;43.788;23.710;2022-07-30T06:39:11;6.93;;;5.50;;
21876;SDS011;11103;43.788;23.710;2022-07-30T06:41:37;14.60;;;5.50;;
21876;SDS011;11103;43.788;23.710;2022-07-30T06:44:02;9.07;;;5.40;;
21876;SDS011;11103;43.788;23.710;2022-07-30T06:46:28;6.87;;;5.17;;
21876;SDS011;11103;43.788;23.710;2022-07-30T06:48:53;11.90;;;5.27;;
21876;SDS011;11103;43.788;23.710;2022-07-30T06:51:18;6.33;;;5.40;;
21876;SDS011;11103;43.788;23.710;2022-07-30T06:53:45;6.83;;;5.50;;
21876;SDS011;11103;43.788;23.710;2022-07-30T06:56:11;8.10;;;5.70;;
21876;SDS011;11103;43.788;23.710;2022-07-30T06:58:37;8.10;;;5.03;;
21876;SDS011;11103;43.788;23.710;2022-07-30T07:01:03;9.27;;;5.40;;
21876;SDS011;11103;43.788;23.710;2022-07-30T07:03:29;10.10;;;6.30;;
21876;SDS011;11103;43.788;23.710;2022-07-30T07:05:54;7.60;;;5.57;;
21876;SDS011;11103;43.788;23.710;2022-07-30T07:08:20;11.03;;;6.00;;
21876;SDS011;11103;43.788;23.710;2022-07-30T07:10:45;8.70;;;5.17;;
21876;SDS011;11103;43.788;23.710;2022-07-30T07:13:10;8.07;;;5.50;;
21876;SDS011;11103;43.788;23.710;2022-07-30T07:15:36;6.73;;;5.37;;
21876;SDS011;11103;43.788;23.710;2022-07-30T07:18:01;10.57;;;5.60;;
21876;SDS011;11103;43.788;23.710;2022-07-30T07:20:27;8.40;;;5.70;;
21876;SDS011;11103;43.788;23.710;2022-07-30T07:22:52;14.57;;;6.27;;
21876;SDS011;11103;43.788;23.710;2022-07-30T07:25:18;10.90;;;5.87;;
21876;SDS011;11103;43.788;23.710;2022-07-30T07:27:43;8.50;;;5.70;;
21876;SDS011;11103;43.788;23.710;2022-07-30T07:30:10;22.53;;;6.63;;
21876;SDS011;11103;43.788;23.710;2022-07-30T07:32:35;6.67;;;5.13;;
21876;SDS011;11103;43.788;23.710;2022-07-30T07:35:01;9.37;;;5.93;;
21876;SDS011;11103;43.788;23.710;2022-07-30T07:37:28;6.03;;;5.37;;
21876;SDS011;11103;43.788;23.710;2022-07-30T07:39:53;6.97;;;4.70;;
21876;SDS011;11103;43.788;23.710;2022-07-30T07:42:19;8.83;;;5.43;;
21876;SDS011;11103;43.788;23.710;2022-07-30T07:44:44;13.10;;;5.43;;
21876;SDS011;11103;43.788;23.710;2022-07-30T07:47:10;10.70;;;5.80;;
21876;SDS011;11103;43.788;23.710;2022-07-30T07:49:35;6.47;;;5.43;;
21876;SDS011;11103;43.788;23.710;2022-07-30T07:52:01;8.67;;;5.57;;
21876;SDS011;11103;43.788;23.710;2022-07-30T07:54:26;7.90;;;5.73;;
21876;SDS011;11103;43.788;23.710;2022-07-30T07:56:52;9.10;;;5.60;;
21876;SDS011;11103;43.788;23.710;2022-07-30T07:59:20;8.93;;;5.30;;
21876;SDS011;11103;43.788;23.710;2022-07-30T08:01:45;9.60;;;5.50;;
21876;SDS011;11103;43.788;23.710;2022-07-30T08:04:11;11.77;;;5.33;;
21876;SDS011;11103;43.788;23.710;2022-07-30T08:06:36;7.03;;;5.97;;
21876;SDS011;11103;43.788;23.710;2022-07-30T08:09:02;8.57;;;5.77;;
21876;SDS011;11103;43.788;23.710;2022-07-30T08:11:27;7.90;;;5.20;;
21876;SDS011;11103;43.788;23.710;2022-07-30T08:13:53;6.07;;;5.00;;
21876;SDS011;11103;43.788;23.710;2022-07-30T08:16:18;7.80;;;5.30;;
21876;SDS011;11103;43.788;23.710;2022-07-30T08:18:44;10.57;;;5.13;;
21876;SDS011;11103;43.788;23.710;2022-07-30T08:21:09;7.30;;;5.13;;
21876;SDS011;11103;43.788;23.710;2022-07-30T08:23:35;8.07;;;4.83;;
21876;SDS011;11103;43.788;23.710;2022-07-30T08:26:01;11.20;;;5.20;;
21876;SDS011;11103;43.788;23.710;2022-07-30T08:28:27;5.83;;;4.67;;
21876;SDS011;11103;43.788;23.710;2022-07-30T08:30:52;6.53;;;4.57;;
21876;SDS011;11103;43.788;23.710;2022-07-30T08:33:17;5.47;;;4.47;;
21876;SDS011;11103;43.788;23.710;2022-07-30T08:35:43;6.93;;;4.80;;
21876;SDS011;11103;43.788;23.710;2022-07-30T08:38:09;7.20;;;5.10;;
21876;SDS011;11103;43.788;23.710;2022-07-30T08:40:34;7.00;;;4.77;;
21876;SDS011;11103;43.788;23.710;2022-07-30T08:43:04;6.80;;;4.70;;
21876;SDS011;11103;43.788;23.710;2022-07-30T08:45:31;5.93;;;4.60;;
21876;SDS011;11103;43.788;23.710;2022-07-30T08:48:01;6.37;;;4.40;;
21876;SDS011;11103;43.788;23.710;2022-07-30T08:50:31;9.20;;;5.23;;
21876;SDS011;11103;43.788;23.710;2022-07-30T08:52:58;6.43;;;5.00;;
21876;SDS011;11103;43.788;23.710;2022-07-30T08:55:27;9.40;;;4.70;;
21876;SDS011;11103;43.788;23.710;2022-07-30T08:57:52;7.37;;;5.13;;
21876;SDS011;11103;43.788;23.710;2022-07-30T09:00:19;8.77;;;4.67;;
21876;SDS011;11103;43.788;23.710;2022-07-30T09:02:45;6.43;;;4.27;;
21876;SDS011;11103;43.788;23.710;2022-07-30T09:05:11;9.33;;;4.83;;
21876;SDS011;11103;43.788;23.710;2022-07-30T09:07:39;7.47;;;4.93;;
21876;SDS011;11103;43.788;23.710;2022-07-30T09:10:06;6.13;;;4.00;;
21876;SDS011;11103;43.788;23.710;2022-07-30T09:20:34;6.17;;;4.20;;
21876;SDS011;11103;43.788;23.710;2022-07-30T09:23:01;9.07;;;4.70;;
21876;SDS011;11103;43.788;23.710;2022-07-30T09:25:38;6.20;;;4.40;;
21876;SDS011;11103;43.788;23.710;2022-07-30T09:28:11;7.53;;;4.23;;
21876;SDS011;11103;43.788;23.710;2022-07-30T09:33:09;4.93;;;4.10;;
21876;SDS011;11103;43.788;23.710;2022-07-30T09:35:35;11.37;;;4.50;;
21876;SDS011;11103;43.788;23.710;2022-07-30T09:38:02;6.73;;;4.40;;
21876;SDS011;11103;43.788;23.710;2022-07-30T09:40:40;7.93;;;4.13;;
21876;SDS011;11103;43.788;23.710;2022-07-30T09:43:15;4.50;;;4.10;;
21876;SDS011;11103;43.788;23.710;2022-07-30T09:45:50;5.13;;;4.40;;
21876;SDS011;11103;43.788;23.710;2022-07-30T09:48:22;5.47;;;4.13;;
21876;SDS011;11103;43.788;23.710;2022-07-30T09:50:51;8.30;;;4.00;;
21876;SDS011;11103;43.788;23.710;2022-07-30T09:53:17;7.13;;;4.90;;
21876;SDS011;11103;43.788;23.710;2022-07-30T09:55:43;8.67;;;5.20;;
21876;SDS011;11103;43.788;23.710;2022-07-30T09:58:09;5.13;;;4.30;;
21876;SDS011;11103;43.788;23.710;2022-07-30T10:00:36;4.60;;;3.93;;
21876;SDS011;11103;43.788;23.710;2022-07-30T10:03:19;6.60;;;3.93;;
21876;SDS011;11103;43.788;23.710;2022-07-30T10:05:55;8.37;;;4.13;;
21876;SDS011;11103;43.788;23.710;2022-07-30T10:11:11;7.73;;;4.30;;
21876;SDS011;11103;43.788;23.710;2022-07-30T10:13:48;7.27;;;4.20;;
21876;SDS011;11103;43.788;23.710;2022-07-30T10:16:14;9.30;;;4.30;;
21876;SDS011;11103;43.788;23.710;2022-07-30T10:18:41;9.67;;;4.57;;
21876;SDS011;11103;43.788;23.710;2022-07-30T10:21:07;10.13;;;3.80;;
21876;SDS011;11103;43.788;23.710;2022-07-30T10:23:33;8.97;;;4.27;;
21876;SDS011;11103;43.788;23.710;2022-07-30T10:25:59;6.90;;;4.47;;
21876;SDS011;11103;43.788;23.710;2022-07-30T10:28:25;9.87;;;4.93;;
21876;SDS011;11103;43.788;23.710;2022-07-30T10:30:52;7.47;;;4.30;;
21876;SDS011;11103;43.788;23.710;2022-07-30T10:33:26;6.27;;;4.30;;
21876;SDS011;11103;43.788;23.710;2022-07-30T10:35:54;6.47;;;4.47;;
21876;SDS011;11103;43.788;23.710;2022-07-30T10:38:27;4.23;;;3.83;;
21876;SDS011;11103;43.788;23.710;2022-07-30T10:40:58;9.30;;;4.50;;
21876;SDS011;11103;43.788;23.710;2022-07-30T10:49:15;5.73;;;4.10;;
21876;SDS011;11103;43.788;23.710;2022-07-30T10:51:42;4.43;;;4.03;;
21876;SDS011;11103;43.788;23.710;2022-07-30T10:57:05;12.17;;;5.10;;
21876;SDS011;11103;43.788;23.710;2022-07-30T11:02:20;9.87;;;4.67;;
21876;SDS011;11103;43.788;23.710;2022-07-30T11:04:46;5.13;;;3.90;;
21876;SDS011;11103;43.788;23.710;2022-07-30T11:09:48;4.97;;;4.30;;
21876;SDS011;11103;43.788;23.710;2022-07-30T11:12:14;8.20;;;3.57;;
21876;SDS011;11103;43.788;23.710;2022-07-30T11:15:06;7.07;;;3.60;;
21876;SDS011;11103;43.788;23.710;2022-07-30T11:20:31;4.37;;;3.97;;
21876;SDS011;11103;43.788;23.710;2022-07-30T11:25:45;5.60;;;3.70;;
21876;SDS011;11103;43.788;23.710;2022-07-30T11:37:04;4.70;;;3.80;;
21876;SDS011;11103;43.788;23.710;2022-07-30T11:42:24;9.13;;;4.63;;
21876;SDS011;11103;43.788;23.710;2022-07-30T11:47:42;6.18;;;3.70;;
21876;SDS011;11103;43.788;23.710;2022-07-30T11:50:15;6.20;;;3.90;;
21876;SDS011;11103;43.788;23.710;2022-07-30T11:52:48;5.23;;;4.30;;
21876;SDS011;11103;43.788;23.710;2022-07-30T11:55:22;4.63;;;3.80;;
21876;SDS011;11103;43.788;23.710;2022-07-30T11:58:03;8.05;;;3.85;;
21876;SDS011;11103;43.788;23.710;2022-07-30T12:00:42;5.43;;;3.80;;
21876;SDS011;11103;43.788;23.710;2022-07-30T12:03:13;5.82;;;3.80;;
21876;SDS011;11103;43.788;23.710;2022-07-30T12:05:39;8.57;;;4.13;;
21876;SDS011;11103;43.788;23.710;2022-07-30T12:08:07;4.07;;;3.65;;
21876;SDS011;11103;43.788;23.710;2022-07-30T12:10:32;5.50;;;4.00;;
21876;SDS011;11103;43.788;23.710;2022-07-30T12:13:06;13.35;;;4.25;;
21876;SDS011;11103;43.788;23.710;2022-07-30T12:15:34;15.98;;;5.20;;
21876;SDS011;11103;43.788;23.710;2022-07-30T12:18:01;5.18;;;3.78;;
21876;SDS011;11103;43.788;23.710;2022-07-30T12:20:27;4.05;;;3.35;;
21876;SDS011;11103;43.788;23.710;2022-07-30T12:22:54;7.55;;;5.78;;
21876;SDS011;11103;43.788;23.710;2022-07-30T12:25:20;5.15;;;4.60;;
21876;SDS011;11103;43.788;23.710;2022-07-30T12:27:47;6.43;;;4.30;;
21876;SDS011;11103;43.788;23.710;2022-07-30T12:30:13;6.43;;;3.85;;
21876;SDS011;11103;43.788;23.710;2022-07-30T12:32:40;5.25;;;4.20;;
21876;SDS011;11103;43.788;23.710;2022-07-30T12:35:07;7.22;;;3.85;;
21876;SDS011;11103;43.788;23.710;2022-07-30T12:37:32;4.55;;;4.05;;
21876;SDS011;11103;43.788;23.710;2022-07-30T12:40:11;8.20;;;4.20;;
21876;SDS011;11103;43.788;23.710;2022-07-30T12:42:53;6.38;;;4.10;;
21876;SDS011;11103;43.788;23.710;2022-07-30T12:45:29;9.05;;;4.53;;
21876;SDS011;11103;43.788;23.710;2022-07-30T12:47:56;4.10;;;3.70;;
21876;SDS011;11103;43.788;23.710;2022-07-30T12:50:25;10.20;;;4.05;;
21876;SDS011;11103;43.788;23.710;2022-07-30T12:52:53;5.28;;;3.70;;
21876;SDS011;11103;43.788;23.710;2022-07-30T12:55:31;4.88;;;3.58;;
21876;SDS011;11103;43.788;23.710;2022-07-30T13:00:31;5.10;;;3.55;;
21876;SDS011;11103;43.788;23.710;2022-07-30T13:03:24;6.90;;;4.07;;
21876;SDS011;11103;43.788;23.710;2022-07-30T13:05:54;7.22;;;3.85;;
21876;SDS011;11103;43.788;23.710;2022-07-30T13:08:43;6.93;;;3.70;;
21876;SDS011;11103;43.788;23.710;2022-07-30T13:11:10;4.15;;;3.42;;
21876;SDS011;11103;43.788;23.710;2022-07-30T13:13:36;3.85;;;3.45;;
21876;SDS011;11103;43.788;23.710;2022-07-30T13:16:02;6.88;;;4.10;;
21876;SDS011;11103;43.788;23.710;2022-07-30T13:18:38;5.10;;;3.45;;
21876;SDS011;11103;43.788;23.710;2022-07-30T13:21:04;4.15;;;3.45;;
21876;SDS011;11103;43.788;23.710;2022-07-30T13:23:33;5.45;;;3.20;;
21876;SDS011;11103;43.788;23.710;2022-07-30T13:25:59;5.47;;;3.60;;
21876;SDS011;11103;43.788;23.710;2022-07-30T13:28:24;5.95;;;3.13;;
21876;SDS011;11103;43.788;23.710;2022-07-30T13:30:52;8.73;;;3.40;;
21876;SDS011;11103;43.788;23.710;2022-07-30T13:33:18;5.32;;;3.58;;
21876;SDS011;11103;43.788;23.710;2022-07-30T13:35:43;3.88;;;3.47;;
21876;SDS011;11103;43.788;23.710;2022-07-30T13:38:10;5.35;;;3.50;;
21876;SDS011;11103;43.788;23.710;2022-07-30T13:40:37;7.97;;;3.50;;
21876;SDS011;11103;43.788;23.710;2022-07-30T13:43:03;4.80;;;3.30;;
21876;SDS011;11103;43.788;23.710;2022-07-30T13:45:29;6.20;;;3.30;;
21876;SDS011;11103;43.788;23.710;2022-07-30T13:47:54;4.43;;;3.45;;
21876;SDS011;11103;43.788;23.710;2022-07-30T13:50:20;4.43;;;3.13;;
21876;SDS011;11103;43.788;23.710;2022-07-30T13:52:46;4.80;;;3.20;;
21876;SDS011;11103;43.788;23.710;2022-07-30T13:55:11;5.10;;;3.20;;
21876;SDS011;11103;43.788;23.710;2022-07-30T13:57:37;5.38;;;3.28;;
21876;SDS011;11103;43.788;23.710;2022-07-30T14:00:03;4.00;;;3.60;;
21876;SDS011;11103;43.788;23.710;2022-07-30T14:02:30;6.72;;;3.33;;
21876;SDS011;11103;43.788;23.710;2022-07-30T14:04:56;3.20;;;2.90;;
21876;SDS011;11103;43.788;23.710;2022-07-30T14:07:21;7.07;;;3.30;;
21876;SDS011;11103;43.788;23.710;2022-07-30T14:09:47;8.90;;;3.30;;
21876;SDS011;11103;43.788;23.710;2022-07-30T14:12:13;3.90;;;3.25;;
21876;SDS011;11103;43.788;23.710;2022-07-30T14:14:38;5.53;;;3.45;;
21876;SDS011;11103;43.788;23.710;2022-07-30T14:17:04;3.10;;;2.90;;
21876;SDS011;11103;43.788;23.710;2022-07-30T14:19:29;3.75;;;3.42;;
21876;SDS011;11103;43.788;23.710;2022-07-30T14:21:55;5.10;;;3.53;;
21876;SDS011;11103;43.788;23.710;2022-07-30T14:24:20;31.35;;;5.35;;
21876;SDS011;11103;43.788;23.710;2022-07-30T14:26:46;8.93;;;3.80;;
21876;SDS011;11103;43.788;23.710;2022-07-30T14:29:13;4.10;;;3.70;;
21876;SDS011;11103;43.788;23.710;2022-07-30T14:31:38;6.80;;;3.85;;
21876;SDS011;11103;43.788;23.710;2022-07-30T14:34:04;6.55;;;3.55;;
21876;SDS011;11103;43.788;23.710;2022-07-30T14:36:30;7.60;;;4.40;;
21876;SDS011;11103;43.788;23.710;2022-07-30T14:38:56;6.07;;;3.50;;
21876;SDS011;11103;43.788;23.710;2022-07-30T14:41:22;4.40;;;3.95;;
21876;SDS011;11103;43.788;23.710;2022-07-30T14:43:48;7.13;;;3.70;;
21876;SDS011;11103;43.788;23.710;2022-07-30T14:46:14;6.13;;;4.10;;
21876;SDS011;11103;43.788;23.710;2022-07-30T14:48:39;6.78;;;3.78;;
21876;SDS011;11103;43.788;23.710;2022-07-30T14:51:05;5.40;;;4.05;;
21876;SDS011;11103;43.788;23.710;2022-07-30T14:53:31;5.43;;;3.80;;
21876;SDS011;11103;43.788;23.710;2022-07-30T14:55:57;5.18;;;3.75;;
21876;SDS011;11103;43.788;23.710;2022-07-30T14:58:22;5.72;;;3.58;;
21876;SDS011;11103;43.788;23.710;2022-07-30T15:00:48;4.60;;;3.88;;
21876;SDS011;11103;43.788;23.710;2022-07-30T15:03:13;4.00;;;3.60;;
21876;SDS011;11103;43.788;23.710;2022-07-30T15:05:39;8.00;;;4.30;;
21876;SDS011;11103;43.788;23.710;2022-07-30T15:08:04;5.20;;;4.10;;
21876;SDS011;11103;43.788;23.710;2022-07-30T15:10:31;13.13;;;7.40;;
21876;SDS011;11103;43.788;23.710;2022-07-30T15:12:57;8.30;;;5.60;;
21876;SDS011;11103;43.788;23.710;2022-07-30T15:15:22;5.80;;;4.37;;
21876;SDS011;11103;43.788;23.710;2022-07-30T15:17:49;8.90;;;4.20;;
21876;SDS011;11103;43.788;23.710;2022-07-30T15:20:14;6.50;;;4.63;;
21876;SDS011;11103;43.788;23.710;2022-07-30T15:22:40;4.27;;;3.63;;
21876;SDS011;11103;43.788;23.710;2022-07-30T15:25:05;5.70;;;4.10;;
21876;SDS011;11103;43.788;23.710;2022-07-30T15:27:31;9.97;;;4.10;;
21876;SDS011;11103;43.788;23.710;2022-07-30T15:29:57;5.90;;;3.87;;
21876;SDS011;11103;43.788;23.710;2022-07-30T15:32:23;5.17;;;3.60;;